createdAt,value
2018-03-14T00:01:08.396Z,5.80
2018-03-14T00:03:35.952Z,5.80
2018-03-14T00:06:03.516Z,5.80
2018-03-14T00:08:31.119Z,5.70
2018-03-14T00:10:58.670Z,5.80
2018-03-14T00:13:26.230Z,5.80
2018-03-14T00:15:53.807Z,5.80
2018-03-14T00:18:21.488Z,5.80
2018-03-14T00:20:49.028Z,5.80
2018-03-14T00:23:16.571Z,5.80
2018-03-14T00:25:44.120Z,5.80
2018-03-14T00:28:12.821Z,5.70
2018-03-14T00:30:40.369Z,5.70
2018-03-14T00:33:08.737Z,5.70
2018-03-14T00:35:36.294Z,5.70
2018-03-14T00:38:03.865Z,5.70
2018-03-14T00:40:31.429Z,5.70
2018-03-14T00:42:58.974Z,5.80
2018-03-14T00:45:26.527Z,5.70
2018-03-14T00:47:54.216Z,5.70
2018-03-14T00:50:21.770Z,5.70
2018-03-14T00:52:49.344Z,5.60
2018-03-14T00:55:16.917Z,5.60
2018-03-14T00:57:44.464Z,5.60
2018-03-14T01:00:11.993Z,5.60
2018-03-14T01:02:39.540Z,5.50
2018-03-14T01:05:07.886Z,5.50
2018-03-14T01:07:35.439Z,5.50
2018-03-14T01:10:02.984Z,5.50
2018-03-14T01:12:30.611Z,5.50
2018-03-14T01:14:58.157Z,5.40
2018-03-14T01:17:25.725Z,5.40
2018-03-14T01:19:53.270Z,5.30
2018-03-14T01:22:20.830Z,5.30
2018-03-14T01:24:48.379Z,5.30
2018-03-14T01:27:15.922Z,5.30
2018-03-14T01:29:43.622Z,5.30
2018-03-14T01:32:11.172Z,5.30
2018-03-14T01:34:38.712Z,5.30
2018-03-14T01:37:07.021Z,5.30
2018-03-14T01:39:34.689Z,5.30
2018-03-14T01:42:02.306Z,5.30
2018-03-14T01:44:29.841Z,5.30
2018-03-14T01:46:57.427Z,5.20
2018-03-14T01:49:24.967Z,5.30
2018-03-14T01:51:52.506Z,5.20
2018-03-14T01:54:20.855Z,5.10
2018-03-14T01:56:48.484Z,5.10
2018-03-14T01:59:16.038Z,5.10
2018-03-14T02:01:43.595Z,5.10
2018-03-14T02:04:11.236Z,5.10
2018-03-14T02:06:38.841Z,5.10
2018-03-14T02:09:06.375Z,5.10
2018-03-14T02:11:34.673Z,5.10
2018-03-14T02:14:02.216Z,5.10
2018-03-14T02:16:30.521Z,5.10
2018-03-14T02:18:58.070Z,5.10
2018-03-14T02:21:26.367Z,5.10
2018-03-14T02:23:53.925Z,5.10
2018-03-14T02:26:22.231Z,5.10
2018-03-14T02:28:49.781Z,5.10
2018-03-14T02:31:17.652Z,5.10
2018-03-14T02:33:45.953Z,5.10
2018-03-14T02:36:13.504Z,5.10
2018-03-14T02:38:41.085Z,5.10
2018-03-14T02:41:08.631Z,5.10
2018-03-14T02:43:36.271Z,5.10
2018-03-14T02:46:03.802Z,5.20
2018-03-14T02:48:31.351Z,5.20
2018-03-14T02:50:58.913Z,5.20
2018-03-14T02:53:26.444Z,5.20
2018-03-14T02:55:54.789Z,5.20
2018-03-14T02:58:22.316Z,5.20
2018-03-14T03:00:49.866Z,5.20
2018-03-14T03:03:18.176Z,5.20
2018-03-14T03:05:45.828Z,5.20
2018-03-14T03:08:13.685Z,5.20
2018-03-14T03:10:41.973Z,5.20
2018-03-14T03:13:10.274Z,5.20
2018-03-14T03:15:37.819Z,5.20
2018-03-14T03:18:06.128Z,5.20
2018-03-14T03:20:33.701Z,5.20
2018-03-14T03:23:01.226Z,5.20
2018-03-14T03:25:29.543Z,5.10
2018-03-14T03:27:57.076Z,5.10
2018-03-14T03:30:25.389Z,5.10
2018-03-14T03:32:52.925Z,5.10
2018-03-14T03:35:21.234Z,5.10
2018-03-14T03:37:48.776Z,5.10
2018-03-14T03:40:17.159Z,5.10
2018-03-14T03:42:45.496Z,5.10
2018-03-14T03:45:13.068Z,5.10
2018-03-14T03:47:40.635Z,5.10
2018-03-14T03:50:08.950Z,5.10
2018-03-14T03:52:37.248Z,5.10
2018-03-14T03:55:04.825Z,5.10
2018-03-14T03:57:32.393Z,5.10
2018-03-14T04:00:00.138Z,5.10
2018-03-14T04:02:28.440Z,5.10
2018-03-14T04:04:55.973Z,5.10
2018-03-14T04:07:23.548Z,5.20
2018-03-14T04:09:51.872Z,5.10
2018-03-14T04:12:19.439Z,5.10
2018-03-14T04:14:46.972Z,5.20
2018-03-14T04:17:14.518Z,5.10
2018-03-14T04:19:42.060Z,5.20
2018-03-14T04:22:09.656Z,5.10
2018-03-14T04:24:37.971Z,5.00
2018-03-14T04:27:05.501Z,5.00
2018-03-14T04:29:33.814Z,4.70
2018-03-14T04:32:01.350Z,4.70
2018-03-14T04:34:29.665Z,4.40
2018-03-14T04:36:57.206Z,4.30
2018-03-14T04:39:24.824Z,4.20
2018-03-14T04:41:52.367Z,4.10
2018-03-14T04:44:19.928Z,4.00
2018-03-14T04:46:47.638Z,3.90
2018-03-14T04:49:15.179Z,3.80
2018-03-14T04:51:42.737Z,3.80
2018-03-14T04:54:10.273Z,3.70
2018-03-14T04:56:38.583Z,3.60
2018-03-14T04:59:06.144Z,3.50
2018-03-14T05:01:33.703Z,3.50
2018-03-14T05:04:01.235Z,3.50
2018-03-14T05:06:28.762Z,3.40
2018-03-14T05:08:56.318Z,3.40
2018-03-14T05:11:23.889Z,3.40
2018-03-14T05:13:51.418Z,3.30
2018-03-14T05:16:18.960Z,3.20
2018-03-14T05:18:46.565Z,3.20
2018-03-14T05:21:14.107Z,3.20
2018-03-14T05:23:42.440Z,3.10
2018-03-14T05:26:10.106Z,3.10
2018-03-14T05:28:37.642Z,3.10
2018-03-14T05:31:05.146Z,3.10
2018-03-14T05:33:32.675Z,3.00
2018-03-14T05:36:00.638Z,3.10
2018-03-14T05:38:28.186Z,3.00
2018-03-14T05:40:55.715Z,3.00
2018-03-14T05:43:23.246Z,3.00
2018-03-14T05:45:50.788Z,3.00
2018-03-14T05:48:19.115Z,3.00
2018-03-14T05:50:46.655Z,3.00
2018-03-14T05:53:14.238Z,3.00
2018-03-14T05:55:41.787Z,3.00
2018-03-14T05:58:09.507Z,3.00
2018-03-14T06:00:37.050Z,2.90
2018-03-14T06:03:04.613Z,2.90
2018-03-14T06:05:32.153Z,2.80
2018-03-14T06:07:59.692Z,2.80
2018-03-14T06:10:28.002Z,2.80
2018-03-14T06:12:55.565Z,2.80
2018-03-14T06:15:23.114Z,2.80
2018-03-14T06:17:51.422Z,2.80
2018-03-14T06:20:18.945Z,2.80
2018-03-14T06:22:47.258Z,2.90
2018-03-14T06:25:14.812Z,2.90
2018-03-14T06:27:43.123Z,2.90
2018-03-14T06:30:10.683Z,2.90
2018-03-14T06:32:38.222Z,3.00
2018-03-14T06:35:06.539Z,3.10
2018-03-14T06:37:34.112Z,3.10
2018-03-14T06:40:01.667Z,3.10
2018-03-14T06:42:29.205Z,3.10
2018-03-14T06:44:57.508Z,3.20
2018-03-14T06:47:25.071Z,3.20
2018-03-14T06:49:52.919Z,3.20
2018-03-14T06:52:21.222Z,3.30
2018-03-14T06:54:48.766Z,3.30
2018-03-14T06:57:17.062Z,3.40
2018-03-14T06:59:56.440Z,3.30
2018-03-14T07:02:35.746Z,3.40
2018-03-14T07:05:15.135Z,3.40
2018-03-14T07:07:42.675Z,3.40
2018-03-14T07:10:10.200Z,3.40
2018-03-14T07:12:37.764Z,3.50
2018-03-14T07:15:05.295Z,3.60
2018-03-14T07:17:32.832Z,3.60
2018-03-14T07:20:00.382Z,3.70
2018-03-14T07:22:27.933Z,3.70
2018-03-14T07:24:55.538Z,3.80
2018-03-14T07:27:23.076Z,3.90
2018-03-14T07:29:50.625Z,4.00
2018-03-14T07:32:18.174Z,4.00
2018-03-14T07:34:46.488Z,4.20
2018-03-14T07:37:14.049Z,4.20
2018-03-14T07:39:41.592Z,4.30
2018-03-14T07:42:09.154Z,4.30
2018-03-14T07:44:37.523Z,4.40
2018-03-14T07:47:05.028Z,4.40
2018-03-14T07:49:32.588Z,4.40
2018-03-14T07:52:00.132Z,4.50
2018-03-14T07:54:28.421Z,4.50
2018-03-14T07:56:55.972Z,4.60
2018-03-14T07:59:24.289Z,4.70
2018-03-14T08:01:51.885Z,4.70
2018-03-14T08:04:19.416Z,4.70
2018-03-14T08:06:46.978Z,4.80
2018-03-14T08:09:14.542Z,4.90
2018-03-14T08:11:42.168Z,5.00
2018-03-14T08:14:09.755Z,5.00
2018-03-14T08:16:38.179Z,5.10
2018-03-14T08:19:05.767Z,5.10
2018-03-14T08:21:33.304Z,5.20
2018-03-14T08:24:00.847Z,5.30
2018-03-14T08:26:28.410Z,5.40
2018-03-14T08:28:55.953Z,5.60
2018-03-14T08:31:24.346Z,5.70
2018-03-14T08:33:51.879Z,5.70
2018-03-14T08:36:19.417Z,5.90
2018-03-14T08:38:46.974Z,5.90
2018-03-14T08:41:14.520Z,6.00
2018-03-14T08:43:42.079Z,6.00
2018-03-14T08:46:09.631Z,6.10
2018-03-14T08:48:37.947Z,6.20
2018-03-14T08:51:05.492Z,6.20
2018-03-14T08:53:33.819Z,6.40
2018-03-14T08:56:01.362Z,6.40
2018-03-14T08:58:28.928Z,6.40
2018-03-14T09:00:56.475Z,6.60
2018-03-14T09:03:24.024Z,6.80
2018-03-14T09:05:52.429Z,7.10
2018-03-14T09:08:19.971Z,7.00
2018-03-14T09:10:47.517Z,7.30
2018-03-14T09:13:15.046Z,7.50
2018-03-14T09:15:42.619Z,7.80
2018-03-14T09:18:10.168Z,8.00
2018-03-14T09:20:37.733Z,8.20
2018-03-14T09:23:05.331Z,8.40
2018-03-14T09:25:32.870Z,8.60
2018-03-14T09:28:00.403Z,8.50
2018-03-14T09:30:28.711Z,8.50
2018-03-14T09:32:56.371Z,8.50
2018-03-14T09:35:23.909Z,8.50
2018-03-14T09:37:51.444Z,8.40
2018-03-14T09:40:19.018Z,8.20
2018-03-14T09:42:46.556Z,8.10
2018-03-14T09:45:14.106Z,8.10
2018-03-14T09:47:42.605Z,8.10
2018-03-14T09:50:10.130Z,8.30
2018-03-14T09:52:38.491Z,8.50
2018-03-14T09:55:06.138Z,8.50
2018-03-14T09:57:33.678Z,8.50
2018-03-14T10:00:01.249Z,8.60
2018-03-14T10:02:29.037Z,8.60
2018-03-14T10:04:56.582Z,8.50
2018-03-14T10:07:24.125Z,8.60
2018-03-14T10:09:52.435Z,8.80
2018-03-14T10:12:19.979Z,8.80
2018-03-14T10:14:47.513Z,8.90
2018-03-14T10:17:15.878Z,9.00
2018-03-14T10:19:43.426Z,9.00
2018-03-14T10:22:10.969Z,9.00
2018-03-14T10:24:38.518Z,8.90
2018-03-14T10:27:06.120Z,9.00
2018-03-14T10:29:33.659Z,9.10
2018-03-14T10:32:01.200Z,9.40
2018-03-14T10:34:29.516Z,9.90
2018-03-14T10:36:57.089Z,9.90
2018-03-14T10:39:24.645Z,10.10
2018-03-14T10:41:52.188Z,10.30
2018-03-14T10:44:19.782Z,10.40
2018-03-14T10:46:47.349Z,10.70
2018-03-14T10:49:14.954Z,11.00
2018-03-14T10:51:42.438Z,11.10
2018-03-14T10:54:10.753Z,11.00
2018-03-14T10:56:38.696Z,11.10
2018-03-14T10:59:07.006Z,10.70
2018-03-14T11:01:40.273Z,10.70
2018-03-14T11:04:08.581Z,10.80
2018-03-14T11:06:36.169Z,10.90
2018-03-14T11:09:05.448Z,10.90
2018-03-14T11:11:33.825Z,10.90
2018-03-14T11:14:02.134Z,10.90
2018-03-14T11:16:29.716Z,11.00
2018-03-14T11:18:57.310Z,11.00
2018-03-14T11:21:24.833Z,11.10
2018-03-14T11:23:52.447Z,11.10
2018-03-14T11:26:20.115Z,11.00
2018-03-14T11:28:47.655Z,10.80
2018-03-14T11:31:15.189Z,10.60
2018-03-14T11:33:42.807Z,10.50
2018-03-14T11:36:10.348Z,10.30
2018-03-14T11:38:37.910Z,10.30
2018-03-14T11:41:05.452Z,10.10
2018-03-14T11:43:32.990Z,10.00
2018-03-14T11:46:01.315Z,9.60
2018-03-14T11:48:28.844Z,9.60
2018-03-14T11:50:56.370Z,9.50
2018-03-14T11:53:23.914Z,9.50
2018-03-14T11:55:51.462Z,9.40
2018-03-14T11:58:18.994Z,9.40
2018-03-14T12:00:47.277Z,9.30
2018-03-14T12:03:15.583Z,9.30
2018-03-14T12:05:43.167Z,9.30
2018-03-14T12:08:10.714Z,9.40
2018-03-14T12:10:38.255Z,9.50
2018-03-14T12:13:06.878Z,9.80
2018-03-14T12:15:34.410Z,9.90
2018-03-14T12:18:02.721Z,10.30
2018-03-14T12:20:30.292Z,10.30
2018-03-14T12:22:57.846Z,10.60
2018-03-14T12:25:25.380Z,10.80
2018-03-14T12:27:52.911Z,11.00
2018-03-14T12:30:20.450Z,11.20
2018-03-14T12:32:47.989Z,11.40
2018-03-14T12:35:16.287Z,11.90
2018-03-14T12:37:43.830Z,11.80
2018-03-14T12:40:11.363Z,12.00
2018-03-14T12:42:38.913Z,12.20
2018-03-14T12:45:06.453Z,12.20
2018-03-14T12:47:33.992Z,12.20
2018-03-14T12:50:02.291Z,12.10
2018-03-14T12:52:30.614Z,12.00
2018-03-14T12:54:58.204Z,12.00
2018-03-14T12:57:25.792Z,11.90
2018-03-14T12:59:54.102Z,11.60
2018-03-14T13:02:21.638Z,11.60
2018-03-14T13:04:49.942Z,11.30
2018-03-14T13:07:17.583Z,11.30
2018-03-14T13:09:45.126Z,11.40
2018-03-14T13:12:12.781Z,11.30
2018-03-14T13:14:40.461Z,11.20
2018-03-14T13:17:08.058Z,10.90
2018-03-14T13:19:35.599Z,10.80
2018-03-14T13:22:03.151Z,10.70
2018-03-14T13:24:30.704Z,10.60
2018-03-14T13:26:58.235Z,10.60
2018-03-14T13:29:25.828Z,10.70
2018-03-14T13:31:53.365Z,10.70
2018-03-14T13:34:21.675Z,10.60
2018-03-14T13:36:49.196Z,10.60
2018-03-14T13:39:17.514Z,10.40
2018-03-14T13:41:45.050Z,10.30
2018-03-14T13:44:12.616Z,10.20
2018-03-14T13:46:40.925Z,10.20
2018-03-14T13:49:08.495Z,10.20
2018-03-14T13:51:36.029Z,10.30
2018-03-14T13:54:04.318Z,10.80
2018-03-14T13:56:32.202Z,10.80
2018-03-14T13:58:59.774Z,11.10
2018-03-14T14:01:27.306Z,11.20
2018-03-14T14:03:55.633Z,11.60
2018-03-14T14:06:23.195Z,11.50
2018-03-14T14:08:50.743Z,11.70
2018-03-14T14:11:18.286Z,11.70
2018-03-14T14:13:46.608Z,11.70
2018-03-14T14:16:14.145Z,11.70
2018-03-14T14:18:42.463Z,11.50
2018-03-14T14:21:10.121Z,11.40
2018-03-14T14:23:37.683Z,11.30
2018-03-14T14:26:05.329Z,11.00
2018-03-14T14:28:33.620Z,10.80
2018-03-14T14:31:01.183Z,10.70
2018-03-14T14:33:29.502Z,10.50
2018-03-14T14:35:57.048Z,10.50
2018-03-14T14:38:24.599Z,10.50
2018-03-14T14:40:52.138Z,10.50
2018-03-14T14:43:19.692Z,10.50
2018-03-14T14:45:47.273Z,10.60
2018-03-14T14:48:14.810Z,10.80
2018-03-14T14:50:42.350Z,10.80
2018-03-14T14:53:09.900Z,11.00
2018-03-14T14:55:37.420Z,11.20
2018-03-14T14:58:04.980Z,11.40
2018-03-14T15:00:32.539Z,11.60
2018-03-14T15:03:00.244Z,11.70
2018-03-14T15:05:28.640Z,11.80
2018-03-14T15:07:56.937Z,11.90
2018-03-14T15:10:24.790Z,11.90
2018-03-14T15:12:53.086Z,12.10
2018-03-14T15:15:20.816Z,12.10
2018-03-14T15:17:48.453Z,12.30
2018-03-14T15:20:16.017Z,12.30
2018-03-14T15:22:43.574Z,12.20
2018-03-14T15:25:11.139Z,12.30
2018-03-14T15:27:38.686Z,12.10
2018-03-14T15:30:06.238Z,11.90
2018-03-14T15:32:34.536Z,11.70
2018-03-14T15:35:02.096Z,11.60
2018-03-14T15:37:29.660Z,11.50
2018-03-14T15:39:57.198Z,11.30
2018-03-14T15:42:24.723Z,11.30
2018-03-14T15:44:52.282Z,11.10
2018-03-14T15:47:19.846Z,11.20
2018-03-14T15:49:47.410Z,11.20
2018-03-14T15:52:14.970Z,11.10
2018-03-14T15:54:42.523Z,11.00
2018-03-14T15:57:10.087Z,11.00
2018-03-14T15:59:38.374Z,11.10
2018-03-14T16:02:05.913Z,11.00
2018-03-14T16:04:34.250Z,11.30
2018-03-14T16:07:01.803Z,11.30
2018-03-14T16:09:29.379Z,11.40
2018-03-14T16:11:56.965Z,11.50
2018-03-14T16:14:24.530Z,11.50
2018-03-14T16:16:52.121Z,11.40
2018-03-14T16:19:20.439Z,11.30
2018-03-14T16:21:48.102Z,11.30
2018-03-14T16:24:15.720Z,11.20
2018-03-14T16:26:43.285Z,11.10
2018-03-14T16:29:10.826Z,11.00
2018-03-14T16:31:38.364Z,10.80
2018-03-14T16:34:05.922Z,10.60
2018-03-14T16:36:33.477Z,10.50
2018-03-14T16:39:01.825Z,10.40
2018-03-14T16:41:29.363Z,10.30
2018-03-14T16:43:56.908Z,10.30
2018-03-14T16:46:24.469Z,10.20
2018-03-14T16:48:52.035Z,10.10
2018-03-14T16:51:19.575Z,10.00
2018-03-14T16:53:47.893Z,9.90
2018-03-14T16:56:15.446Z,9.90
2018-03-14T16:58:43.009Z,9.90
2018-03-14T17:01:10.552Z,9.80
2018-03-14T17:03:38.854Z,9.70
2018-03-14T17:06:06.432Z,9.60
2018-03-14T17:08:33.997Z,9.60
2018-03-14T17:11:01.560Z,9.50
2018-03-14T17:13:29.107Z,9.40
2018-03-14T17:15:57.398Z,9.20
2018-03-14T17:18:24.935Z,9.20
2018-03-14T17:20:52.461Z,9.10
2018-03-14T17:23:20.007Z,9.00
2018-03-14T17:25:47.585Z,8.90
2018-03-14T17:28:15.130Z,8.80
2018-03-14T17:30:42.668Z,8.70
2018-03-14T17:33:10.987Z,8.50
2018-03-14T17:35:38.590Z,8.40
2018-03-14T17:38:06.207Z,8.30
2018-03-14T17:40:33.742Z,8.20
2018-03-14T17:43:01.273Z,8.10
2018-03-14T17:45:28.831Z,8.10
2018-03-14T17:47:56.377Z,8.00
2018-03-14T17:50:23.914Z,7.90
2018-03-14T17:52:52.236Z,7.80
2018-03-14T17:55:19.796Z,7.80
2018-03-14T17:57:47.346Z,7.70
2018-03-14T18:00:14.922Z,7.70
2018-03-14T18:02:42.461Z,7.70
2018-03-14T18:05:10.780Z,7.70
2018-03-14T18:07:38.342Z,7.70
2018-03-14T18:10:05.907Z,7.70
2018-03-14T18:12:33.453Z,7.60
2018-03-14T18:15:01.010Z,7.50
2018-03-14T18:17:29.311Z,7.50
2018-03-14T18:19:56.995Z,7.50
2018-03-14T18:22:24.560Z,7.40
2018-03-14T18:24:52.201Z,7.30
2018-03-14T18:27:19.748Z,7.30
2018-03-14T18:29:48.062Z,7.20
2018-03-14T18:32:15.935Z,7.20
2018-03-14T18:34:43.488Z,7.20
2018-03-14T18:37:11.027Z,7.20
2018-03-14T18:39:38.585Z,7.20
2018-03-14T18:42:06.150Z,7.10
2018-03-14T18:44:33.700Z,7.10
2018-03-14T18:47:01.245Z,7.10
2018-03-14T18:49:28.819Z,7.00
2018-03-14T18:51:56.358Z,6.90
2018-03-14T18:54:23.939Z,6.90
2018-03-14T18:56:51.509Z,6.80
2018-03-14T18:59:19.074Z,6.80
2018-03-14T19:01:46.641Z,6.80
2018-03-14T19:04:15.040Z,6.70
2018-03-14T19:06:43.371Z,6.70
2018-03-14T19:09:10.944Z,6.60
2018-03-14T19:11:38.511Z,6.60
2018-03-14T19:14:06.079Z,6.60
2018-03-14T19:16:33.646Z,6.50
2018-03-14T19:19:01.223Z,6.50
2018-03-14T19:21:28.789Z,6.50
2018-03-14T19:23:56.419Z,6.50
2018-03-14T19:26:24.745Z,6.40
2018-03-14T19:28:52.249Z,6.40
2018-03-14T19:31:19.811Z,6.30
2018-03-14T19:33:47.504Z,6.30
2018-03-14T19:36:15.835Z,6.20
2018-03-14T19:38:43.387Z,6.20
2018-03-14T19:41:11.149Z,6.20
2018-03-14T19:43:38.779Z,6.20
2018-03-14T19:46:07.132Z,6.10
2018-03-14T19:48:34.744Z,6.10
2018-03-14T19:51:03.135Z,6.10
2018-03-14T19:53:30.754Z,6.00
2018-03-14T19:55:58.392Z,6.00
2018-03-14T19:58:25.984Z,6.00
2018-03-14T20:00:53.662Z,6.00
2018-03-14T20:03:21.223Z,6.00
2018-03-14T20:05:48.835Z,5.90
2018-03-14T20:08:16.429Z,5.90
2018-03-14T20:10:44.001Z,5.80
2018-03-14T20:13:11.653Z,5.80
2018-03-14T20:15:39.377Z,5.70
2018-03-14T20:18:06.992Z,5.60
2018-03-14T20:20:34.588Z,5.60
2018-03-14T20:23:03.162Z,5.60
2018-03-14T20:25:30.754Z,5.50
2018-03-14T20:27:58.688Z,5.50
2018-03-14T20:30:26.259Z,5.40
2018-03-14T20:32:53.892Z,5.30
2018-03-14T20:35:22.235Z,5.30
2018-03-14T20:37:49.820Z,5.30
2018-03-14T20:40:17.426Z,5.30
2018-03-14T20:42:45.027Z,5.20
2018-03-14T20:45:12.623Z,5.20
2018-03-14T20:47:40.294Z,5.20
2018-03-14T20:50:07.870Z,5.20
2018-03-14T20:52:36.272Z,5.10
2018-03-14T20:55:04.618Z,5.10
2018-03-14T20:57:32.257Z,5.10
2018-03-14T20:59:59.841Z,5.10
2018-03-14T21:02:27.482Z,5.00
2018-03-14T21:04:55.785Z,4.90
2018-03-14T21:07:23.348Z,4.90
2018-03-14T21:09:50.903Z,4.90
2018-03-14T21:12:18.497Z,4.90
2018-03-14T21:14:46.121Z,4.80
2018-03-14T21:17:13.682Z,4.80
2018-03-14T21:19:41.247Z,4.80
2018-03-14T21:22:08.810Z,4.70
2018-03-14T21:24:36.389Z,4.70
2018-03-14T21:27:03.951Z,4.70
2018-03-14T21:29:31.536Z,4.70
2018-03-14T21:31:59.084Z,4.70
2018-03-14T21:34:26.639Z,4.70
2018-03-14T21:36:54.255Z,4.60
2018-03-14T21:39:21.963Z,4.50
2018-03-14T21:41:49.427Z,4.50
2018-03-14T21:44:17.759Z,4.50
2018-03-14T21:46:45.337Z,4.50
2018-03-14T21:49:12.893Z,4.50
2018-03-14T21:51:40.458Z,4.50
2018-03-14T21:54:07.999Z,4.40
2018-03-14T21:56:35.552Z,4.40
2018-03-14T21:59:03.094Z,4.40
2018-03-14T22:01:31.452Z,4.30
2018-03-14T22:03:59.023Z,4.30
2018-03-14T22:06:26.572Z,4.30
2018-03-14T22:08:54.119Z,4.30
2018-03-14T22:11:21.691Z,4.30
2018-03-14T22:13:49.217Z,4.30
2018-03-14T22:16:17.165Z,4.20
2018-03-14T22:18:44.695Z,4.20
2018-03-14T22:21:12.222Z,4.10
2018-03-14T22:23:39.766Z,4.10
2018-03-14T22:26:08.183Z,4.10
2018-03-14T22:28:36.506Z,4.10
2018-03-14T22:31:04.049Z,4.10
2018-03-14T22:33:31.611Z,4.10
2018-03-14T22:35:59.133Z,4.10
2018-03-14T22:38:27.457Z,4.10
2018-03-14T22:40:55.019Z,4.10
2018-03-14T22:43:22.584Z,4.10
2018-03-14T22:45:50.119Z,4.10
2018-03-14T22:48:17.714Z,4.00
2018-03-14T22:50:45.247Z,4.10
2018-03-14T22:53:13.555Z,4.10
2018-03-14T22:55:41.086Z,4.10
2018-03-14T22:58:09.381Z,4.00
2018-03-14T23:00:37.675Z,4.00
2018-03-14T23:03:05.964Z,4.00
2018-03-14T23:05:33.532Z,4.00
2018-03-14T23:08:01.072Z,4.00
2018-03-14T23:10:29.377Z,4.00
2018-03-14T23:12:56.935Z,3.90
2018-03-14T23:15:24.474Z,3.90
2018-03-14T23:17:52.801Z,3.90
2018-03-14T23:20:20.359Z,3.90
2018-03-14T23:22:47.898Z,3.90
2018-03-14T23:25:16.219Z,3.90
2018-03-14T23:27:43.802Z,3.90
2018-03-14T23:30:11.333Z,3.80
2018-03-14T23:32:38.868Z,3.80
2018-03-14T23:35:07.243Z,3.80
2018-03-14T23:37:34.761Z,3.70
2018-03-14T23:40:02.302Z,3.80
2018-03-14T23:42:29.847Z,3.80
2018-03-14T23:44:57.404Z,3.70
2018-03-14T23:47:24.945Z,3.70
2018-03-14T23:49:52.482Z,3.70
2018-03-14T23:52:20.018Z,3.60
2018-03-14T23:54:48.324Z,3.60
2018-03-14T23:57:15.885Z,3.60
2018-03-14T23:59:43.430Z,3.60
